sensor_id;sensor_type;location;lat;lon;timestamp;pressure;altitude;pressure_sealevel;temperature;humidity
1652;BME280;823;49.028;8.454;2023-05-16T00:02:35;100185.47;;;18.24;53.91
1652;BME280;823;49.028;8.454;2023-05-16T00:07:36;100176.88;;;18.21;54.26
1652;BME280;823;49.028;8.454;2023-05-16T00:12:38;100169.97;;;18.20;54.42
1652;BME280;823;49.028;8.454;2023-05-16T00:17:38;100168.50;;;18.16;54.34
1652;BME280;823;49.028;8.454;2023-05-16T00:22:40;100161.72;;;18.14;54.70
1652;BME280;823;49.028;8.454;2023-05-16T00:27:40;100166.53;;;18.07;53.55
1652;BME280;823;49.028;8.454;2023-05-16T00:32:40;100176.44;;;18.15;53.81
1652;BME280;823;49.028;8.454;2023-05-16T00:37:41;100175.41;;;18.17;54.25
1652;BME280;823;49.028;8.454;2023-05-16T00:42:42;100168.94;;;18.10;54.06
1652;BME280;823;49.028;8.454;2023-05-16T00:47:42;100166.09;;;18.13;54.05
1652;BME280;823;49.028;8.454;2023-05-16T00:52:42;100166.31;;;18.10;54.24
1652;BME280;823;49.028;8.454;2023-05-16T00:57:43;100170.41;;;18.14;54.18
1652;BME280;823;49.028;8.454;2023-05-16T01:02:45;100166.63;;;18.06;54.32
1652;BME280;823;49.028;8.454;2023-05-16T01:07:45;100171.66;;;18.09;54.34
1652;BME280;823;49.028;8.454;2023-05-16T01:12:59;100167.47;;;18.06;54.52
1652;BME280;823;49.028;8.454;2023-05-16T01:23:18;100163.47;;;18.00;54.80
1652;BME280;823;49.028;8.454;2023-05-16T01:28:24;100169.31;;;17.91;54.29
1652;BME280;823;49.028;8.454;2023-05-16T01:33:25;100167.72;;;17.88;54.15
1652;BME280;823;49.028;8.454;2023-05-16T01:38:29;100172.00;;;17.77;54.09
1652;BME280;823;49.028;8.454;2023-05-16T01:43:38;100168.66;;;17.75;53.55
1652;BME280;823;49.028;8.454;2023-05-16T01:49:14;100179.16;;;17.87;53.94
1652;BME280;823;49.028;8.454;2023-05-16T01:54:20;100174.72;;;17.75;54.39
1652;BME280;823;49.028;8.454;2023-05-16T01:59:23;100181.22;;;17.69;54.51
1652;BME280;823;49.028;8.454;2023-05-16T02:04:25;100187.38;;;17.68;54.65
1652;BME280;823;49.028;8.454;2023-05-16T02:09:25;100184.88;;;17.67;54.89
1652;BME280;823;49.028;8.454;2023-05-16T02:14:25;100188.50;;;17.64;54.62
1652;BME280;823;49.028;8.454;2023-05-16T02:19:26;100187.88;;;17.61;55.00
1652;BME280;823;49.028;8.454;2023-05-16T02:24:26;100195.81;;;17.59;55.05
1652;BME280;823;49.028;8.454;2023-05-16T02:29:26;100194.34;;;17.55;55.42
1652;BME280;823;49.028;8.454;2023-05-16T02:34:27;100194.78;;;17.62;54.83
1652;BME280;823;49.028;8.454;2023-05-16T02:39:27;100193.72;;;17.51;54.23
1652;BME280;823;49.028;8.454;2023-05-16T02:44:29;100194.22;;;17.57;54.36
1652;BME280;823;49.028;8.454;2023-05-16T02:49:29;100190.47;;;17.48;54.52
1652;BME280;823;49.028;8.454;2023-05-16T02:54:30;100198.59;;;17.43;54.68
1652;BME280;823;49.028;8.454;2023-05-16T02:59:30;100204.75;;;17.42;54.37
1652;BME280;823;49.028;8.454;2023-05-16T03:04:30;100203.28;;;17.38;54.59
1652;BME280;823;49.028;8.454;2023-05-16T03:09:31;100201.25;;;17.29;54.69
1652;BME280;823;49.028;8.454;2023-05-16T03:14:31;100198.59;;;17.16;54.65
1652;BME280;823;49.028;8.454;2023-05-16T03:19:32;100211.91;;;17.26;54.93
1652;BME280;823;49.028;8.454;2023-05-16T03:24:32;100215.34;;;17.26;55.01
1652;BME280;823;49.028;8.454;2023-05-16T03:29:33;100213.03;;;17.22;55.29
1652;BME280;823;49.028;8.454;2023-05-16T03:34:34;100215.66;;;17.22;55.67
1652;BME280;823;49.028;8.454;2023-05-16T03:39:34;100213.69;;;17.25;55.59
1652;BME280;823;49.028;8.454;2023-05-16T03:44:34;100216.22;;;17.27;55.50
1652;BME280;823;49.028;8.454;2023-05-16T03:49:35;100222.69;;;17.07;55.76
1652;BME280;823;49.028;8.454;2023-05-16T03:54:36;100225.84;;;17.12;55.24
1652;BME280;823;49.028;8.454;2023-05-16T03:59:36;100231.75;;;17.01;55.26
1652;BME280;823;49.028;8.454;2023-05-16T04:04:38;100235.03;;;17.05;55.43
1652;BME280;823;49.028;8.454;2023-05-16T04:09:38;100236.16;;;17.00;55.74
1652;BME280;823;49.028;8.454;2023-05-16T04:14:38;100238.19;;;16.95;56.25
1652;BME280;823;49.028;8.454;2023-05-16T04:19:39;100256.59;;;16.94;56.00
1652;BME280;823;49.028;8.454;2023-05-16T04:24:39;100263.31;;;16.98;55.96
1652;BME280;823;49.028;8.454;2023-05-16T04:29:39;100251.69;;;16.88;55.82
1652;BME280;823;49.028;8.454;2023-05-16T04:34:40;100261.97;;;16.62;55.40
1652;BME280;823;49.028;8.454;2023-05-16T04:39:40;100271.28;;;16.51;55.48
1652;BME280;823;49.028;8.454;2023-05-16T04:44:41;100267.66;;;16.54;55.27
1652;BME280;823;49.028;8.454;2023-05-16T04:49:43;100267.16;;;16.33;55.40
1652;BME280;823;49.028;8.454;2023-05-16T04:54:43;100270.50;;;16.35;55.38
1652;BME280;823;49.028;8.454;2023-05-16T04:59:43;100281.50;;;16.26;55.55
1652;BME280;823;49.028;8.454;2023-05-16T05:04:44;100273.47;;;16.14;55.77
1652;BME280;823;49.028;8.454;2023-05-16T05:09:44;100273.06;;;16.06;55.87
1652;BME280;823;49.028;8.454;2023-05-16T05:14:45;100273.47;;;16.14;55.77
1652;BME280;823;49.028;8.454;2023-05-16T05:19:46;100284.91;;;16.12;55.55
1652;BME280;823;49.028;8.454;2023-05-16T05:24:47;100293.78;;;16.24;55.46
1652;BME280;823;49.028;8.454;2023-05-16T05:29:47;100288.25;;;16.14;55.41
1652;BME280;823;49.028;8.454;2023-05-16T05:34:48;100297.34;;;16.23;55.44
1652;BME280;823;49.028;8.454;2023-05-16T05:39:48;100295.44;;;16.10;54.97
1652;BME280;823;49.028;8.454;2023-05-16T05:44:48;100303.78;;;16.01;55.67
1652;BME280;823;49.028;8.454;2023-05-16T05:49:49;100299.41;;;16.02;55.65
1652;BME280;823;49.028;8.454;2023-05-16T05:54:49;100313.00;;;15.92;55.59
1652;BME280;823;49.028;8.454;2023-05-16T05:59:50;100312.44;;;16.02;55.52
1652;BME280;823;49.028;8.454;2023-05-16T06:04:50;100311.63;;;16.01;55.52
1652;BME280;823;49.028;8.454;2023-05-16T06:09:50;100322.56;;;16.08;55.48
1652;BME280;823;49.028;8.454;2023-05-16T06:14:51;100314.03;;;16.04;55.65
1652;BME280;823;49.028;8.454;2023-05-16T06:19:51;100318.56;;;16.16;55.08
1652;BME280;823;49.028;8.454;2023-05-16T06:24:52;100322.59;;;16.22;55.23
1652;BME280;823;49.028;8.454;2023-05-16T06:29:52;100337.41;;;16.22;54.34
1652;BME280;823;49.028;8.454;2023-05-16T06:34:53;100336.34;;;16.40;54.95
1652;BME280;823;49.028;8.454;2023-05-16T06:39:53;100344.34;;;16.37;54.10
1652;BME280;823;49.028;8.454;2023-05-16T06:44:53;100350.56;;;16.50;54.11
1652;BME280;823;49.028;8.454;2023-05-16T06:49:54;100354.41;;;16.29;54.54
1652;BME280;823;49.028;8.454;2023-05-16T06:54:54;100354.41;;;16.29;54.53
1652;BME280;823;49.028;8.454;2023-05-16T06:59:54;100367.84;;;16.37;54.24
1652;BME280;823;49.028;8.454;2023-05-16T07:04:54;100366.66;;;16.43;54.27
1652;BME280;823;49.028;8.454;2023-05-16T07:09:55;100368.03;;;16.34;54.30
1652;BME280;823;49.028;8.454;2023-05-16T07:14:55;100352.88;;;16.25;54.55
1652;BME280;823;49.028;8.454;2023-05-16T07:19:56;100362.81;;;16.34;54.13
1652;BME280;823;49.028;8.454;2023-05-16T07:24:56;100367.06;;;16.35;53.95
1652;BME280;823;49.028;8.454;2023-05-16T07:29:59;100364.41;;;16.37;53.37
1652;BME280;823;49.028;8.454;2023-05-16T07:35:00;100360.41;;;16.45;53.58
1652;BME280;823;49.028;8.454;2023-05-16T07:40:00;100369.94;;;16.61;52.73
1652;BME280;823;49.028;8.454;2023-05-16T07:45:01;100379.09;;;16.54;52.50
1652;BME280;823;49.028;8.454;2023-05-16T07:50:01;100384.91;;;16.73;52.28
1652;BME280;823;49.028;8.454;2023-05-16T07:55:02;100387.13;;;16.65;51.80
1652;BME280;823;49.028;8.454;2023-05-16T08:00:03;100391.13;;;16.56;52.30
1652;BME280;823;49.028;8.454;2023-05-16T08:05:03;100386.50;;;16.45;52.33
1652;BME280;823;49.028;8.454;2023-05-16T08:10:05;100394.22;;;16.63;52.16
1652;BME280;823;49.028;8.454;2023-05-16T08:15:07;100391.66;;;16.61;52.44
1652;BME280;823;49.028;8.454;2023-05-16T08:20:08;100403.69;;;16.49;52.06
1652;BME280;823;49.028;8.454;2023-05-16T08:25:09;100402.38;;;16.42;52.14
1652;BME280;823;49.028;8.454;2023-05-16T08:30:09;100404.66;;;16.63;52.56
1652;BME280;823;49.028;8.454;2023-05-16T08:35:11;100393.75;;;16.71;52.11
1652;BME280;823;49.028;8.454;2023-05-16T08:40:12;100403.47;;;16.68;52.03
1652;BME280;823;49.028;8.454;2023-05-16T08:45:13;100402.13;;;16.61;51.90
1652;BME280;823;49.028;8.454;2023-05-16T08:50:14;100404.66;;;16.63;51.82
1652;BME280;823;49.028;8.454;2023-05-16T08:55:15;100409.34;;;16.72;51.28
1652;BME280;823;49.028;8.454;2023-05-16T09:00:18;100410.66;;;16.79;51.31
1652;BME280;823;49.028;8.454;2023-05-16T09:05:21;100415.13;;;16.63;51.52
1652;BME280;823;49.028;8.454;2023-05-16T09:10:22;100411.94;;;16.42;51.44
1652;BME280;823;49.028;8.454;2023-05-16T09:15:22;100420.38;;;16.31;51.30
1652;BME280;823;49.028;8.454;2023-05-16T09:20:30;100425.22;;;16.53;50.94
1652;BME280;823;49.028;8.454;2023-05-16T09:25:30;100430.00;;;16.61;50.66
1652;BME280;823;49.028;8.454;2023-05-16T09:30:32;100423.38;;;16.55;50.09
1652;BME280;823;49.028;8.454;2023-05-16T09:35:33;100425.94;;;16.71;50.72
1652;BME280;823;49.028;8.454;2023-05-16T09:40:33;100441.50;;;16.89;50.09
1652;BME280;823;49.028;8.454;2023-05-16T09:45:34;100434.41;;;16.91;49.93
1652;BME280;823;49.028;8.454;2023-05-16T09:50:36;100437.72;;;17.09;49.71
1652;BME280;823;49.028;8.454;2023-05-16T09:55:36;100429.69;;;17.12;50.06
1652;BME280;823;49.028;8.454;2023-05-16T10:00:37;100416.44;;;17.29;49.01
1652;BME280;823;49.028;8.454;2023-05-16T10:05:38;100433.88;;;17.29;48.33
1652;BME280;823;49.028;8.454;2023-05-16T10:10:40;100435.09;;;17.09;48.55
1652;BME280;823;49.028;8.454;2023-05-16T10:15:41;100438.75;;;17.35;48.74
1652;BME280;823;49.028;8.454;2023-05-16T10:20:43;100441.84;;;17.56;48.61
1652;BME280;823;49.028;8.454;2023-05-16T10:25:46;100434.91;;;17.55;48.37
1652;BME280;823;49.028;8.454;2023-05-16T10:30:46;100442.47;;;17.60;48.08
1652;BME280;823;49.028;8.454;2023-05-16T10:35:47;100445.00;;;17.32;47.58
1652;BME280;823;49.028;8.454;2023-05-16T10:40:48;100456.97;;;16.92;48.30
1652;BME280;823;49.028;8.454;2023-05-16T10:45:58;100467.72;;;16.71;48.75
1652;BME280;823;49.028;8.454;2023-05-16T10:51:02;100466.44;;;16.48;49.36
1652;BME280;823;49.028;8.454;2023-05-16T11:01:22;100463.00;;;16.15;49.52
1652;BME280;823;49.028;8.454;2023-05-16T11:06:45;100466.56;;;16.14;48.25
1652;BME280;823;49.028;8.454;2023-05-16T11:16:56;100484.84;;;16.61;47.89
1652;BME280;823;49.028;8.454;2023-05-16T11:22:09;100480.81;;;16.55;47.01
1652;BME280;823;49.028;8.454;2023-05-16T11:27:11;100494.97;;;16.67;47.12
1652;BME280;823;49.028;8.454;2023-05-16T11:32:13;100493.03;;;17.01;46.79
1652;BME280;823;49.028;8.454;2023-05-16T11:37:18;100489.97;;;17.09;45.82
1652;BME280;823;49.028;8.454;2023-05-16T11:42:19;100488.59;;;17.32;45.97
1652;BME280;823;49.028;8.454;2023-05-16T11:47:19;100485.81;;;17.49;45.06
1652;BME280;823;49.028;8.454;2023-05-16T11:52:21;100491.06;;;17.35;45.03
1652;BME280;823;49.028;8.454;2023-05-16T11:57:21;100496.88;;;17.10;45.21
1652;BME280;823;49.028;8.454;2023-05-16T12:02:21;100506.28;;;16.98;45.65
1652;BME280;823;49.028;8.454;2023-05-16T12:07:27;100508.72;;;17.15;45.74
1652;BME280;823;49.028;8.454;2023-05-16T12:12:27;100517.47;;;17.00;44.79
1652;BME280;823;49.028;8.454;2023-05-16T12:17:28;100521.78;;;17.01;44.67
1652;BME280;823;49.028;8.454;2023-05-16T12:22:28;100517.34;;;17.17;44.55
1652;BME280;823;49.028;8.454;2023-05-16T12:27:28;100528.47;;;17.35;44.46
1652;BME280;823;49.028;8.454;2023-05-16T12:32:29;100532.03;;;17.34;44.04
1652;BME280;823;49.028;8.454;2023-05-16T12:37:29;100542.19;;;16.78;44.91
1652;BME280;823;49.028;8.454;2023-05-16T12:42:30;100550.69;;;16.82;45.95
1652;BME280;823;49.028;8.454;2023-05-16T12:47:35;100549.19;;;16.62;46.06
1652;BME280;823;49.028;8.454;2023-05-16T12:52:36;100555.84;;;16.67;47.09
1652;BME280;823;49.028;8.454;2023-05-16T12:57:36;100547.81;;;16.87;47.13
1652;BME280;823;49.028;8.454;2023-05-16T13:02:37;100558.13;;;16.90;46.57
1652;BME280;823;49.028;8.454;2023-05-16T13:07:37;100563.16;;;17.09;46.01
1652;BME280;823;49.028;8.454;2023-05-16T13:12:40;100568.88;;;16.83;45.28
1652;BME280;823;49.028;8.454;2023-05-16T13:17:42;100569.56;;;17.03;44.87
1652;BME280;823;49.028;8.454;2023-05-16T13:22:46;100570.69;;;16.99;45.17
1652;BME280;823;49.028;8.454;2023-05-16T13:27:46;100570.69;;;17.29;44.97
1652;BME280;823;49.028;8.454;2023-05-16T13:32:48;100575.03;;;17.14;43.73
1652;BME280;823;49.028;8.454;2023-05-16T13:37:48;100569.78;;;17.14;42.97
1652;BME280;823;49.028;8.454;2023-05-16T13:42:49;100574.94;;;17.30;43.24
1652;BME280;823;49.028;8.454;2023-05-16T13:47:49;100568.78;;;17.17;42.92
1652;BME280;823;49.028;8.454;2023-05-16T13:52:49;100573.09;;;17.02;42.62
1652;BME280;823;49.028;8.454;2023-05-16T13:57:51;100572.09;;;17.05;42.69
1652;BME280;823;49.028;8.454;2023-05-16T14:02:51;100565.69;;;16.94;41.04
1652;BME280;823;49.028;8.454;2023-05-16T14:07:52;100566.47;;;16.96;40.95
1652;BME280;823;49.028;8.454;2023-05-16T14:12:52;100565.13;;;17.19;40.61
1652;BME280;823;49.028;8.454;2023-05-16T14:17:52;100573.34;;;17.28;41.24
1652;BME280;823;49.028;8.454;2023-05-16T14:22:53;100570.22;;;17.37;39.83
1652;BME280;823;49.028;8.454;2023-05-16T14:27:53;100568.19;;;17.42;40.12
1652;BME280;823;49.028;8.454;2023-05-16T14:32:53;100563.75;;;17.28;39.40
1652;BME280;823;49.028;8.454;2023-05-16T14:37:54;100568.28;;;17.41;39.33
1652;BME280;823;49.028;8.454;2023-05-16T14:42:54;100575.22;;;17.56;39.44
1652;BME280;823;49.028;8.454;2023-05-16T14:47:54;100570.50;;;17.47;37.15
1652;BME280;823;49.028;8.454;2023-05-16T14:52:55;100565.56;;;17.57;37.12
1652;BME280;823;49.028;8.454;2023-05-16T14:57:55;100561.97;;;17.74;37.58
1652;BME280;823;49.028;8.454;2023-05-16T15:02:56;100567.00;;;17.77;36.55
1652;BME280;823;49.028;8.454;2023-05-16T15:07:57;100573.13;;;17.92;36.74
1652;BME280;823;49.028;8.454;2023-05-16T15:12:57;100565.03;;;17.80;35.84
1652;BME280;823;49.028;8.454;2023-05-16T15:17:58;100559.25;;;17.90;35.43
1652;BME280;823;49.028;8.454;2023-05-16T15:22:58;100557.59;;;18.03;35.58
1652;BME280;823;49.028;8.454;2023-05-16T15:27:59;100565.22;;;18.20;36.73
1652;BME280;823;49.028;8.454;2023-05-16T15:32:59;100561.06;;;18.18;35.01
1652;BME280;823;49.028;8.454;2023-05-16T15:37:59;100559.78;;;18.38;35.21
1652;BME280;823;49.028;8.454;2023-05-16T15:43:00;100550.44;;;18.34;34.42
1652;BME280;823;49.028;8.454;2023-05-16T15:48:00;100559.38;;;18.59;35.73
1652;BME280;823;49.028;8.454;2023-05-16T15:53:01;100551.75;;;18.68;35.27
1652;BME280;823;49.028;8.454;2023-05-16T15:58:03;100543.41;;;18.76;34.94
1652;BME280;823;49.028;8.454;2023-05-16T16:03:04;100551.75;;;18.68;34.21
1652;BME280;823;49.028;8.454;2023-05-16T16:08:04;100552.00;;;18.78;35.00
1652;BME280;823;49.028;8.454;2023-05-16T16:13:05;100549.44;;;18.64;34.34
1652;BME280;823;49.028;8.454;2023-05-16T16:18:05;100534.19;;;18.83;34.97
1652;BME280;823;49.028;8.454;2023-05-16T16:23:05;100541.69;;;18.89;33.68
1652;BME280;823;49.028;8.454;2023-05-16T16:28:06;100541.94;;;18.72;33.09
1652;BME280;823;49.028;8.454;2023-05-16T16:33:06;100543.06;;;18.95;32.66
1652;BME280;823;49.028;8.454;2023-05-16T16:38:06;100532.69;;;18.94;31.60
1652;BME280;823;49.028;8.454;2023-05-16T16:43:07;100540.03;;;18.74;30.74
1652;BME280;823;49.028;8.454;2023-05-16T16:48:07;100545.31;;;18.87;31.61
1652;BME280;823;49.028;8.454;2023-05-16T16:53:08;100551.25;;;19.03;31.03
1652;BME280;823;49.028;8.454;2023-05-16T16:58:10;100546.06;;;19.16;30.37
1652;BME280;823;49.028;8.454;2023-05-16T17:03:11;100555.19;;;19.36;30.97
1652;BME280;823;49.028;8.454;2023-05-16T17:08:11;100561.91;;;19.28;29.77
1652;BME280;823;49.028;8.454;2023-05-16T17:13:11;100557.59;;;19.27;30.21
1652;BME280;823;49.028;8.454;2023-05-16T17:18:13;100562.63;;;19.30;29.46
1652;BME280;823;49.028;8.454;2023-05-16T17:23:14;100568.47;;;19.08;30.39
1652;BME280;823;49.028;8.454;2023-05-16T17:28:14;100573.91;;;19.04;29.49
1652;BME280;823;49.028;8.454;2023-05-16T17:33:14;100575.47;;;18.80;29.06
1652;BME280;823;49.028;8.454;2023-05-16T17:38:15;100580.69;;;18.67;29.18
1652;BME280;823;49.028;8.454;2023-05-16T17:43:15;100588.13;;;18.46;29.12
1652;BME280;823;49.028;8.454;2023-05-16T17:48:15;100585.31;;;18.34;29.04
1652;BME280;823;49.028;8.454;2023-05-16T17:53:15;100599.22;;;18.49;29.99
1652;BME280;823;49.028;8.454;2023-05-16T17:58:16;100600.16;;;18.48;29.82
1652;BME280;823;49.028;8.454;2023-05-16T18:03:17;100606.09;;;18.37;29.43
1652;BME280;823;49.028;8.454;2023-05-16T18:08:17;100606.19;;;18.21;29.02
1652;BME280;823;49.028;8.454;2023-05-16T18:13:18;100614.97;;;18.35;29.39
1652;BME280;823;49.028;8.454;2023-05-16T18:18:19;100626.50;;;18.18;29.34
1652;BME280;823;49.028;8.454;2023-05-16T18:23:19;100631.25;;;18.11;29.12
1652;BME280;823;49.028;8.454;2023-05-16T18:28:20;100624.34;;;18.10;29.35
1652;BME280;823;49.028;8.454;2023-05-16T18:33:20;100633.84;;;17.97;29.45
1652;BME280;823;49.028;8.454;2023-05-16T18:38:21;100643.09;;;18.02;29.44
1652;BME280;823;49.028;8.454;2023-05-16T18:43:21;100653.75;;;17.99;29.58
1652;BME280;823;49.028;8.454;2023-05-16T18:48:21;100648.75;;;17.80;31.10
1652;BME280;823;49.028;8.454;2023-05-16T18:53:22;100669.16;;;17.90;30.49
1652;BME280;823;49.028;8.454;2023-05-16T18:58:22;100670.25;;;17.71;30.31
1652;BME280;823;49.028;8.454;2023-05-16T19:03:22;100677.59;;;17.64;30.32
1652;BME280;823;49.028;8.454;2023-05-16T19:08:23;100681.19;;;17.47;30.97
1652;BME280;823;49.028;8.454;2023-05-16T19:13:23;100691.69;;;17.62;31.17
1652;BME280;823;49.028;8.454;2023-05-16T19:18:23;100696.78;;;17.49;31.13
1652;BME280;823;49.028;8.454;2023-05-16T19:23:23;100699.16;;;17.38;31.75
1652;BME280;823;49.028;8.454;2023-05-16T19:28:24;100709.06;;;17.32;32.18
1652;BME280;823;49.028;8.454;2023-05-16T19:33:24;100711.16;;;17.26;32.27
1652;BME280;823;49.028;8.454;2023-05-16T19:38:25;100726.44;;;17.17;32.40
1652;BME280;823;49.028;8.454;2023-05-16T19:43:25;100733.00;;;17.09;32.36
1652;BME280;823;49.028;8.454;2023-05-16T19:48:26;100737.81;;;17.00;33.96
1652;BME280;823;49.028;8.454;2023-05-16T19:53:26;100741.75;;;16.92;34.99
1652;BME280;823;49.028;8.454;2023-05-16T19:58:27;100748.53;;;16.78;36.18
1652;BME280;823;49.028;8.454;2023-05-16T20:03:27;100763.69;;;16.72;37.50
1652;BME280;823;49.028;8.454;2023-05-16T20:08:27;100765.03;;;16.63;37.04
1652;BME280;823;49.028;8.454;2023-05-16T20:13:28;100769.03;;;16.52;36.77
1652;BME280;823;49.028;8.454;2023-05-16T20:18:29;100779.09;;;16.43;36.73
1652;BME280;823;49.028;8.454;2023-05-16T20:23:29;100778.91;;;16.30;35.95
1652;BME280;823;49.028;8.454;2023-05-16T20:28:30;100775.22;;;16.34;36.60
1652;BME280;823;49.028;8.454;2023-05-16T20:33:30;100781.25;;;16.34;36.50
1652;BME280;823;49.028;8.454;2023-05-16T20:38:31;100781.63;;;16.27;35.88
1652;BME280;823;49.028;8.454;2023-05-16T20:43:31;100784.50;;;16.22;36.59
1652;BME280;823;49.028;8.454;2023-05-16T20:48:31;100793.63;;;16.13;36.36
1652;BME280;823;49.028;8.454;2023-05-16T20:53:31;100792.84;;;16.11;36.62
1652;BME280;823;49.028;8.454;2023-05-16T20:58:32;100793.19;;;16.23;36.82
1652;BME280;823;49.028;8.454;2023-05-16T21:03:32;100797.38;;;16.25;37.56
1652;BME280;823;49.028;8.454;2023-05-16T21:08:33;100798.84;;;16.13;37.11
1652;BME280;823;49.028;8.454;2023-05-16T21:13:33;100806.53;;;16.16;37.82
1652;BME280;823;49.028;8.454;2023-05-16T21:18:33;100803.75;;;16.02;37.20
1652;BME280;823;49.028;8.454;2023-05-16T21:23:34;100806.66;;;15.96;38.46
1652;BME280;823;49.028;8.454;2023-05-16T21:28:34;100818.16;;;15.92;37.32
1652;BME280;823;49.028;8.454;2023-05-16T21:33:35;100820.66;;;15.76;37.35
1652;BME280;823;49.028;8.454;2023-05-16T21:38:35;100818.47;;;15.86;37.87
1652;BME280;823;49.028;8.454;2023-05-16T21:43:36;100833.75;;;15.74;37.70
1652;BME280;823;49.028;8.454;2023-05-16T21:48:36;100840.53;;;15.59;37.16
1652;BME280;823;49.028;8.454;2023-05-16T21:53:37;100839.72;;;15.40;37.12
1652;BME280;823;49.028;8.454;2023-05-16T21:58:38;100845.19;;;15.53;38.38
1652;BME280;823;49.028;8.454;2023-05-16T22:03:38;100853.66;;;15.39;38.17
1652;BME280;823;49.028;8.454;2023-05-16T22:08:38;100856.09;;;15.42;38.90
1652;BME280;823;49.028;8.454;2023-05-16T22:13:39;100856.31;;;15.37;39.55
1652;BME280;823;49.028;8.454;2023-05-16T22:18:39;100855.84;;;15.29;41.25
1652;BME280;823;49.028;8.454;2023-05-16T22:23:39;100868.94;;;15.27;41.01
1652;BME280;823;49.028;8.454;2023-05-16T22:28:40;100879.91;;;15.15;40.98
1652;BME280;823;49.028;8.454;2023-05-16T22:33:40;100886.34;;;15.06;42.05
1652;BME280;823;49.028;8.454;2023-05-16T22:38:40;100885.28;;;14.91;41.75
1652;BME280;823;49.028;8.454;2023-05-16T22:43:41;100886.78;;;14.76;41.75
1652;BME280;823;49.028;8.454;2023-05-16T22:48:41;100887.81;;;14.72;41.80
1652;BME280;823;49.028;8.454;2023-05-16T22:53:41;100885.22;;;14.50;41.21
1652;BME280;823;49.028;8.454;2023-05-16T22:58:42;100889.44;;;14.32;41.38
1652;BME280;823;49.028;8.454;2023-05-16T23:03:42;100887.44;;;14.39;42.32
1652;BME280;823;49.028;8.454;2023-05-16T23:08:42;100895.47;;;14.33;42.44
1652;BME280;823;49.028;8.454;2023-05-16T23:13:43;100903.72;;;14.22;42.30
1652;BME280;823;49.028;8.454;2023-05-16T23:18:43;100894.09;;;14.24;42.27
1652;BME280;823;49.028;8.454;2023-05-16T23:23:43;100908.81;;;14.25;44.01
1652;BME280;823;49.028;8.454;2023-05-16T23:28:43;100900.41;;;14.18;44.36
1652;BME280;823;49.028;8.454;2023-05-16T23:33:44;100902.47;;;14.10;43.36
1652;BME280;823;49.028;8.454;2023-05-16T23:38:44;100905.13;;;14.08;43.96
1652;BME280;823;49.028;8.454;2023-05-16T23:43:44;100914.13;;;14.00;44.45
1652;BME280;823;49.028;8.454;2023-05-16T23:48:44;100922.03;;;13.96;44.62
1652;BME280;823;49.028;8.454;2023-05-16T23:53:45;100923.97;;;13.91;45.05
1652;BME280;823;49.028;8.454;2023-05-16T23:58:45;100924.41;;;13.81;45.12
